Time;durP1;ratioP1;P1;durP2;ratioP2;P2;SDS_P1;SDS_P2;PMS_P1;PMS_P2;Temp;Humidity;BMP_temperature;BMP_pressure;BME280_temperature;BME280_humidity;BME280_pressure;Samples;Min_cycle;Max_cycle;Signal;HPM_P1;HPM_P2
2022/03/19 00:02:24;;;;;;;148.15;81.88;;;;;;;;;;6196733;23;20406;-88
2022/03/19 00:04:51;;;;;;;161.70;86.70;;;;;;;;;;6223476;23;20260;-88
2022/03/19 00:07:17;;;;;;;168.38;90.40;;;;;;;;;;6222819;23;20008;-89
2022/03/19 00:09:44;;;;;;;173.63;92.25;;;;;;;;;;6222847;23;20001;-88
2022/03/19 00:12:14;;;;;;;183.77;94.57;;;;;;;;;;6222981;23;20019;-89
2022/03/19 00:14:40;;;;;;;171.55;91.45;;;;;;;;;;6222926;23;20001;-88
2022/03/19 00:17:06;;;;;;;194.60;102.95;;;;;;;;;;6222901;23;20092;-89
2022/03/19 00:19:32;;;;;;;202.18;105.60;;;;;;;;;;6222756;23;20100;-89
2022/03/19 00:21:58;;;;;;;224.40;113.97;;;;;;;;;;6222880;23;20019;-89
2022/03/19 00:24:24;;;;;;;242.35;125.47;;;;;;;;;;6222941;23;20040;-89
2022/03/19 00:26:50;;;;;;;258.63;133.70;;;;;;;;;;6196627;23;20007;-88
2022/03/19 00:29:16;;;;;;;259.23;132.88;;;;;;;;;;6222873;23;20294;-87
2022/03/19 00:31:42;;;;;;;253.95;128.50;;;;;;;;;;6222692;23;20009;-87
2022/03/19 00:34:08;;;;;;;239.88;124.78;;;;;;;;;;6222753;23;20004;-88
2022/03/19 00:36:35;;;;;;;247.38;120.45;;;;;;;;;;6222638;23;20004;-89
2022/03/19 00:39:01;;;;;;;217.23;110.20;;;;;;;;;;6222493;23;20379;-89
2022/03/19 00:41:27;;;;;;;178.15;92.63;;;;;;;;;;6222098;23;20000;-89
2022/03/19 00:43:53;;;;;;;130.10;64.72;;;;;;;;;;6222470;23;20071;-88
2022/03/19 00:46:20;;;;;;;116.90;59.58;;;;;;;;;;6223010;23;19996;-89
2022/03/19 00:48:47;;;;;;;105.82;54.70;;;;;;;;;;6222568;22;20000;-89
2022/03/19 00:51:13;;;;;;;106.15;60.33;;;;;;;;;;6222348;23;20021;-89
2022/03/19 00:53:39;;;;;;;118.25;64.05;;;;;;;;;;6195736;23;20375;-90
2022/03/19 00:56:05;;;;;;;104.82;54.75;;;;;;;;;;6222750;23;20023;-88
2022/03/19 00:58:32;;;;;;;93.85;49.20;;;;;;;;;;6222143;23;19996;-88
2022/03/19 01:00:58;;;;;;;91.30;48.05;;;;;;;;;;6222434;23;20084;-88
2022/03/19 01:03:24;;;;;;;123.68;54.22;;;;;;;;;;6222106;23;20371;-89
2022/03/19 01:05:50;;;;;;;94.43;51.67;;;;;;;;;;6222392;23;20001;-89
2022/03/19 01:08:16;;;;;;;85.20;46.65;;;;;;;;;;6222815;23;20076;-88
2022/03/19 01:10:42;;;;;;;92.30;49.03;;;;;;;;;;6222031;23;19997;-88
2022/03/19 01:13:08;;;;;;;92.45;47.97;;;;;;;;;;6222118;23;20363;-88
2022/03/19 01:15:34;;;;;;;85.50;45.60;;;;;;;;;;6222204;23;20371;-89
2022/03/19 01:18:01;;;;;;;99.95;53.38;;;;;;;;;;6195816;23;20303;-88
2022/03/19 01:20:27;;;;;;;132.55;63.90;;;;;;;;;;6222519;23;20017;-89
2022/03/19 01:22:53;;;;;;;121.28;59.10;;;;;;;;;;6195678;23;20012;-89
2022/03/19 01:25:20;;;;;;;88.03;45.30;;;;;;;;;;6222454;23;20072;-89
2022/03/19 01:27:47;;;;;;;86.45;44.65;;;;;;;;;;6222627;23;20043;-89
2022/03/19 01:30:17;;;;;;;74.70;43.22;;;;;;;;;;6222376;23;20083;-88
2022/03/19 01:32:44;;;;;;;79.57;40.22;;;;;;;;;;6221893;23;20011;-89
2022/03/19 01:35:11;;;;;;;66.78;38.22;;;;;;;;;;6222066;23;20001;-89
2022/03/19 01:37:38;;;;;;;63.67;35.40;;;;;;;;;;6222002;23;20364;-89
2022/03/19 01:40:05;;;;;;;67.15;36.55;;;;;;;;;;6221907;23;20422;-89
2022/03/19 01:42:32;;;;;;;69.25;37.40;;;;;;;;;;6195721;23;20012;-88
2022/03/19 01:44:59;;;;;;;71.90;37.42;;;;;;;;;;6195613;23;20005;-89
2022/03/19 01:47:26;;;;;;;62.85;35.08;;;;;;;;;;6222384;23;20009;-89
2022/03/19 01:49:52;;;;;;;66.03;35.72;;;;;;;;;;6195783;23;20019;-88
2022/03/19 01:52:19;;;;;;;64.18;36.28;;;;;;;;;;6222113;23;20004;-90
2022/03/19 01:54:46;;;;;;;61.33;35.13;;;;;;;;;;6195558;23;20107;-88
2022/03/19 01:57:17;;;;;;;64.57;35.35;;;;;;;;;;6221797;23;20000;-89
2022/03/19 01:59:44;;;;;;;63.80;35.83;;;;;;;;;;6221560;23;20067;-89
2022/03/19 02:02:11;;;;;;;62.83;34.70;;;;;;;;;;6221725;23;20011;-87
2022/03/19 02:04:38;;;;;;;58.28;33.58;;;;;;;;;;6221967;23;20072;-89
2022/03/19 02:07:04;;;;;;;59.00;33.97;;;;;;;;;;6222093;23;20005;-89
2022/03/19 02:09:30;;;;;;;57.50;32.47;;;;;;;;;;6221899;23;20001;-88
2022/03/19 02:11:56;;;;;;;59.92;34.13;;;;;;;;;;6221896;23;20004;-88
2022/03/19 02:14:22;;;;;;;60.90;34.13;;;;;;;;;;6221944;23;20260;-89
2022/03/19 02:16:49;;;;;;;60.95;33.65;;;;;;;;;;6221546;23;20001;-89
2022/03/19 02:19:15;;;;;;;55.97;33.00;;;;;;;;;;6195424;23;20032;-89
2022/03/19 02:21:45;;;;;;;59.58;33.78;;;;;;;;;;6221305;23;20000;-89
2022/03/19 02:26:57;;;;;;;69.00;35.42;;;;;;;;;;6221475;23;20015;-89
2022/03/19 02:29:23;;;;;;;63.45;36.72;;;;;;;;;;6195340;23;20072;-89
2022/03/19 02:31:51;;;;;;;61.60;34.92;;;;;;;;;;6195205;23;20372;-89
2022/03/19 02:34:17;;;;;;;63.78;36.40;;;;;;;;;;6221403;23;20000;-88
2022/03/19 02:36:43;;;;;;;65.25;38.10;;;;;;;;;;6221782;23;20012;-88
2022/03/19 02:39:13;;;;;;;70.60;38.90;;;;;;;;;;6221767;23;20007;-89
2022/03/19 02:41:44;;;;;;;76.20;42.72;;;;;;;;;;6221238;23;20004;-88
2022/03/19 02:44:10;;;;;;;86.18;48.35;;;;;;;;;;6221446;23;20367;-89
2022/03/19 02:46:37;;;;;;;90.50;46.20;;;;;;;;;;6221582;23;20007;-88
2022/03/19 02:49:03;;;;;;;67.80;38.90;;;;;;;;;;6221183;23;20359;-88
2022/03/19 02:51:29;;;;;;;73.97;40.38;;;;;;;;;;6221384;23;20253;-88
2022/03/19 02:53:55;;;;;;;66.85;38.70;;;;;;;;;;6222011;23;20012;-89
2022/03/19 02:56:21;;;;;;;68.60;40.28;;;;;;;;;;6221535;23;20001;-89
2022/03/19 02:58:47;;;;;;;73.82;43.70;;;;;;;;;;6195081;23;20271;-88
2022/03/19 03:01:13;;;;;;;82.10;45.38;;;;;;;;;;6195156;23;20312;-88
2022/03/19 03:03:41;;;;;;;77.70;45.17;;;;;;;;;;6221496;23;20012;-90
2022/03/19 03:06:07;;;;;;;79.53;44.03;;;;;;;;;;6221536;23;20020;-88
2022/03/19 03:08:33;;;;;;;94.18;48.72;;;;;;;;;;6221568;23;19996;-88
2022/03/19 03:10:59;;;;;;;87.60;48.15;;;;;;;;;;6221151;23;19993;-88
2022/03/19 03:13:25;;;;;;;88.53;47.80;;;;;;;;;;6221190;23;20032;-91
2022/03/19 03:15:51;;;;;;;88.60;47.50;;;;;;;;;;6220590;23;20260;-92
2022/03/19 03:18:17;;;;;;;90.38;49.00;;;;;;;;;;6194596;23;20005;-92
2022/03/19 03:20:43;;;;;;;83.45;46.50;;;;;;;;;;6221102;23;20372;-94
2022/03/19 03:23:09;;;;;;;83.60;44.97;;;;;;;;;;6220997;23;20255;-92
2022/03/19 03:28:39;;;;;;;63.85;37.72;;;;;;;;;;6220962;23;19999;-92
2022/03/19 03:31:05;;;;;;;66.05;40.00;;;;;;;;;;6195069;23;20364;-92
2022/03/19 03:33:31;;;;;;;88.05;52.58;;;;;;;;;;6221212;23;20000;-94
2022/03/19 03:35:57;;;;;;;89.80;52.45;;;;;;;;;;6221666;23;20012;-94
2022/03/19 03:38:24;;;;;;;70.07;42.03;;;;;;;;;;6221068;23;20024;-91
2022/03/19 03:46:57;;;;;;;67.20;36.63;;;;;;;;;;6221071;23;20031;-94
2022/03/19 03:49:24;;;;;;;66.97;37.35;;;;;;;;;;6221059;23;20334;-91
2022/03/19 03:51:50;;;;;;;65.63;36.92;;;;;;;;;;6220806;23;20020;-92
2022/03/19 03:54:17;;;;;;;64.07;36.08;;;;;;;;;;6221164;23;20308;-91
2022/03/19 03:56:43;;;;;;;65.90;37.38;;;;;;;;;;6194879;23;20096;-93
2022/03/19 03:59:09;;;;;;;66.30;36.72;;;;;;;;;;6194648;23;20012;-92
2022/03/19 04:01:35;;;;;;;67.72;36.60;;;;;;;;;;6220769;23;20004;-92
2022/03/19 04:04:01;;;;;;;63.20;35.95;;;;;;;;;;6220949;23;20352;-93
2022/03/19 04:06:27;;;;;;;62.03;36.17;;;;;;;;;;6220638;23;20344;-92
2022/03/19 04:08:54;;;;;;;70.15;38.55;;;;;;;;;;6220795;23;20039;-91
2022/03/19 04:11:38;;;;;;;68.07;38.15;;;;;;;;;;6220849;23;20415;-92
2022/03/19 04:14:04;;;;;;;71.70;40.35;;;;;;;;;;6221306;23;20008;-92
2022/03/19 04:16:31;;;;;;;89.40;47.10;;;;;;;;;;6220635;23;20374;-91
2022/03/19 04:18:57;;;;;;;81.65;44.22;;;;;;;;;;6221040;23;20047;-92
2022/03/19 04:21:23;;;;;;;77.30;43.55;;;;;;;;;;6194474;23;20005;-93
2022/03/19 04:23:49;;;;;;;79.40;43.60;;;;;;;;;;6221212;23;20295;-91
2022/03/19 04:26:15;;;;;;;79.82;43.15;;;;;;;;;;6221040;23;20005;-92
2022/03/19 04:28:41;;;;;;;79.47;43.83;;;;;;;;;;6194764;23;20047;-91
2022/03/19 04:31:07;;;;;;;88.85;44.75;;;;;;;;;;6194358;23;20012;-93
2022/03/19 04:33:33;;;;;;;81.57;44.78;;;;;;;;;;6221210;23;20004;-93
2022/03/19 04:38:44;;;;;;;80.18;42.65;;;;;;;;;;6220843;23;20015;-91
2022/03/19 04:44:32;;;;;;;73.28;41.85;;;;;;;;;;6220755;23;20429;-92
2022/03/19 04:46:58;;;;;;;69.15;39.28;;;;;;;;;;6222714;23;20005;-92
2022/03/19 04:49:24;;;;;;;73.90;40.45;;;;;;;;;;6222604;23;20012;-93
2022/03/19 04:51:50;;;;;;;70.88;38.92;;;;;;;;;;6222339;23;20017;-93
2022/03/19 04:54:16;;;;;;;79.15;41.13;;;;;;;;;;6222631;23;20004;-90
2022/03/19 04:59:52;;;;;;;84.18;44.58;;;;;;;;;;6222546;23;20023;-92
2022/03/19 05:02:18;;;;;;;91.13;48.90;;;;;;;;;;6195971;23;20092;-91
2022/03/19 05:04:44;;;;;;;77.75;42.13;;;;;;;;;;6196058;23;20005;-92
2022/03/19 05:07:10;;;;;;;75.82;42.05;;;;;;;;;;6222525;23;19997;-92
2022/03/19 05:15:24;;;;;;;81.32;46.05;;;;;;;;;;6222466;23;20271;-92
2022/03/19 05:17:50;;;;;;;83.78;46.55;;;;;;;;;;6196147;23;20005;-92
2022/03/19 05:20:17;;;;;;;87.63;46.50;;;;;;;;;;6222128;23;20012;-92
2022/03/19 05:22:43;;;;;;;90.10;49.47;;;;;;;;;;6221861;23;20007;-93
2022/03/19 05:25:09;;;;;;;87.00;46.03;;;;;;;;;;6221840;23;20367;-92
2022/03/19 05:30:39;;;;;;;86.45;44.72;;;;;;;;;;6222218;23;20256;-94
2022/03/19 05:33:05;;;;;;;84.18;46.83;;;;;;;;;;6222173;23;20009;-92
2022/03/19 05:35:31;;;;;;;85.10;45.97;;;;;;;;;;6222048;23;20009;-92
2022/03/19 05:38:01;;;;;;;90.03;49.70;;;;;;;;;;6222347;23;20260;-91
2022/03/19 05:40:28;;;;;;;96.78;50.90;;;;;;;;;;6222408;23;20007;-91
2022/03/19 05:42:54;;;;;;;159.30;82.32;;;;;;;;;;6221882;23;20375;-94
2022/03/19 05:45:21;;;;;;;115.25;60.75;;;;;;;;;;6222342;23;20000;-92
2022/03/19 05:47:47;;;;;;;137.43;73.35;;;;;;;;;;6221563;23;19996;-92
2022/03/19 05:50:15;;;;;;;165.02;91.57;;;;;;;;;;6221650;23;20044;-92
2022/03/19 05:52:41;;;;;;;136.75;76.15;;;;;;;;;;6222323;23;20009;-92
2022/03/19 05:55:08;;;;;;;137.05;73.20;;;;;;;;;;6195621;23;20015;-91
2022/03/19 06:00:38;;;;;;;134.15;72.50;;;;;;;;;;6221761;23;20003;-91
2022/03/19 06:03:04;;;;;;;133.75;72.43;;;;;;;;;;6221562;23;20083;-91
2022/03/19 06:05:30;;;;;;;131.35;73.70;;;;;;;;;;6170875;23;20064;-92
2022/03/19 06:07:56;;;;;;;354.80;131.45;;;;;;;;;;6195601;23;20000;-93
2022/03/19 06:10:23;;;;;;;552.38;210.45;;;;;;;;;;6195426;23;20291;-92
2022/03/19 06:12:49;;;;;;;157.70;73.07;;;;;;;;;;6221909;23;20005;-92
2022/03/19 06:15:15;;;;;;;111.40;56.53;;;;;;;;;;6195472;23;20091;-92
2022/03/19 06:17:41;;;;;;;101.60;52.08;;;;;;;;;;6221367;23;20001;-92
2022/03/19 06:20:08;;;;;;;107.20;54.63;;;;;;;;;;6195222;23;20004;-91
2022/03/19 06:22:34;;;;;;;92.03;48.22;;;;;;;;;;6195090;23;20478;-92
2022/03/19 06:25:00;;;;;;;118.93;58.33;;;;;;;;;;6221350;23;20364;-91
2022/03/19 06:33:33;;;;;;;85.25;45.25;;;;;;;;;;6221572;23;20015;-90
2022/03/19 06:38:44;;;;;;;81.35;46.88;;;;;;;;;;6221244;23;20020;-92
2022/03/19 06:41:32;;;;;;;83.65;47.70;;;;;;;;;;6221360;23;20367;-91
2022/03/19 06:43:58;;;;;;;78.88;46.85;;;;;;;;;;6195332;23;20271;-91
2022/03/19 06:46:24;;;;;;;80.97;46.70;;;;;;;;;;6221390;23;20132;-91
2022/03/19 06:48:50;;;;;;;85.55;48.97;;;;;;;;;;6221538;23;20371;-91
2022/03/19 06:51:20;;;;;;;91.38;50.50;;;;;;;;;;6194651;23;20025;-90
2022/03/19 06:53:47;;;;;;;79.40;46.17;;;;;;;;;;6221879;23;20007;-91
2022/03/19 06:56:13;;;;;;;82.55;47.03;;;;;;;;;;6221372;23;20374;-89
2022/03/19 06:58:39;;;;;;;83.50;48.17;;;;;;;;;;6220824;23;20307;-90
2022/03/19 07:01:05;;;;;;;83.47;46.67;;;;;;;;;;6221630;23;20024;-90
2022/03/19 07:03:32;;;;;;;84.07;48.78;;;;;;;;;;6221373;23;20000;-93
2022/03/19 07:05:58;;;;;;;86.30;49.17;;;;;;;;;;6194576;23;20084;-90
2022/03/19 07:08:24;;;;;;;80.95;46.72;;;;;;;;;;6221162;23;19993;-91
2022/03/19 07:13:53;;;;;;;82.45;46.65;;;;;;;;;;6221389;23;20038;-90
2022/03/19 07:16:20;;;;;;;73.82;45.97;;;;;;;;;;6221358;23;20079;-91
2022/03/19 07:18:46;;;;;;;81.07;46.28;;;;;;;;;;6194822;23;20263;-92
2022/03/19 07:21:12;;;;;;;80.55;44.72;;;;;;;;;;6194859;23;20063;-90
2022/03/19 07:23:38;;;;;;;80.88;45.60;;;;;;;;;;6194802;23;20051;-91
2022/03/19 07:26:33;;;;;;;76.70;46.75;;;;;;;;;;6221192;23;20002;-91
2022/03/19 07:29:00;;;;;;;72.70;45.22;;;;;;;;;;6194088;23;20011;-90
2022/03/19 07:31:26;;;;;;;75.32;44.90;;;;;;;;;;6220781;23;20005;-90
2022/03/19 07:33:52;;;;;;;77.85;46.00;;;;;;;;;;6194643;23;20298;-91
2022/03/19 07:36:21;;;;;;;79.50;46.33;;;;;;;;;;6194665;23;20005;-92
2022/03/19 07:38:47;;;;;;;73.60;43.90;;;;;;;;;;6194171;23;20009;-91
2022/03/19 07:41:48;;;;;;;69.03;41.65;;;;;;;;;;6223052;23;20394;-94
2022/03/19 07:44:15;;;;;;;69.95;41.55;;;;;;;;;;6221535;23;20017;-92
2022/03/19 07:46:42;;;;;;;80.78;43.42;;;;;;;;;;6194424;23;20004;-92
2022/03/19 07:49:08;;;;;;;70.30;42.63;;;;;;;;;;6220715;23;20001;-93
2022/03/19 07:51:35;;;;;;;65.72;41.22;;;;;;;;;;6220779;23;20035;-92
2022/03/19 07:54:01;;;;;;;68.63;41.10;;;;;;;;;;6221051;23;20004;-92
2022/03/19 07:57:04;;;;;;;74.43;41.35;;;;;;;;;;6221169;23;20004;-90
2022/03/19 07:59:30;;;;;;;61.47;39.15;;;;;;;;;;6194514;23;20082;-91
2022/03/19 08:01:56;;;;;;;68.70;41.30;;;;;;;;;;6221056;23;20001;-91
2022/03/19 08:04:23;;;;;;;59.92;39.13;;;;;;;;;;6220790;23;19997;-91
2022/03/19 08:06:53;;;;;;;68.18;40.97;;;;;;;;;;6221219;23;20005;-90
2022/03/19 08:09:19;;;;;;;67.53;39.60;;;;;;;;;;6194657;23;20064;-90
2022/03/19 08:11:45;;;;;;;63.30;37.10;;;;;;;;;;6194639;23;20364;-92
2022/03/19 08:14:14;;;;;;;58.08;36.10;;;;;;;;;;6194633;23;20001;-90
2022/03/19 08:16:40;;;;;;;59.28;37.22;;;;;;;;;;6220941;23;19997;-91
2022/03/19 08:19:07;;;;;;;56.72;37.33;;;;;;;;;;6220728;22;20020;-92
2022/03/19 08:21:33;;;;;;;52.63;35.33;;;;;;;;;;6196568;23;20013;-91
2022/03/19 08:23:59;;;;;;;54.78;35.83;;;;;;;;;;6223166;23;20004;-91
2022/03/19 08:29:28;;;;;;;53.60;35.72;;;;;;;;;;6222375;23;20403;-90
2022/03/19 08:31:55;;;;;;;50.33;32.88;;;;;;;;;;6222428;23;20032;-90
2022/03/19 08:34:21;;;;;;;53.40;33.25;;;;;;;;;;6195996;23;20103;-90
2022/03/19 08:36:47;;;;;;;51.92;31.27;;;;;;;;;;6196124;23;20256;-90
2022/03/19 08:41:58;;;;;;;51.90;33.58;;;;;;;;;;6222746;23;20020;-90
2022/03/19 08:44:25;;;;;;;49.15;32.97;;;;;;;;;;6222487;23;20382;-92
2022/03/19 08:46:52;;;;;;;49.45;31.20;;;;;;;;;;6221813;23;20000;-91
2022/03/19 08:49:18;;;;;;;53.70;32.97;;;;;;;;;;6195567;23;20075;-91
2022/03/19 08:51:45;;;;;;;52.50;31.65;;;;;;;;;;6195909;23;20039;-92
2022/03/19 08:54:14;;;;;;;47.70;32.53;;;;;;;;;;6222353;23;20000;-91
2022/03/19 08:56:40;;;;;;;50.65;32.58;;;;;;;;;;6195724;23;20001;-91
2022/03/19 08:59:06;;;;;;;52.90;34.38;;;;;;;;;;6222771;23;20000;-91
2022/03/19 09:01:33;;;;;;;49.83;32.30;;;;;;;;;;6222117;23;20364;-92
2022/03/19 09:03:59;;;;;;;46.03;30.75;;;;;;;;;;6222579;23;20012;-91
2022/03/19 09:06:25;;;;;;;47.10;31.77;;;;;;;;;;6196085;23;20016;-92
2022/03/19 09:08:51;;;;;;;46.00;29.65;;;;;;;;;;6222522;23;20000;-91
2022/03/19 09:11:51;;;;;;;42.20;27.48;;;;;;;;;;6195314;23;20047;-91
2022/03/19 09:14:18;;;;;;;42.88;26.25;;;;;;;;;;6194613;23;20027;-92
2022/03/19 09:16:44;;;;;;;41.08;26.80;;;;;;;;;;6221415;23;20001;-92
2022/03/19 09:19:10;;;;;;;45.42;28.13;;;;;;;;;;6195672;23;20009;-87
2022/03/19 09:21:37;;;;;;;42.75;28.48;;;;;;;;;;6221976;23;20375;-88
2022/03/19 09:24:04;;;;;;;40.53;26.40;;;;;;;;;;6195585;23;20028;-88
2022/03/19 09:29:33;;;;;;;37.13;24.20;;;;;;;;;;6221725;23;20050;-89
2022/03/19 09:31:59;;;;;;;34.03;23.23;;;;;;;;;;6221080;23;20001;-87
2022/03/19 09:34:25;;;;;;;37.00;24.92;;;;;;;;;;6222377;23;20009;-87
2022/03/19 09:36:51;;;;;;;39.22;24.50;;;;;;;;;;6222358;23;20011;-87
2022/03/19 09:39:19;;;;;;;36.65;24.23;;;;;;;;;;6221596;23;20087;-87
2022/03/19 09:41:45;;;;;;;39.38;24.75;;;;;;;;;;6195564;23;20367;-87
2022/03/19 09:44:12;;;;;;;34.45;22.85;;;;;;;;;;6195746;23;20364;-87
2022/03/19 09:46:38;;;;;;;38.08;21.65;;;;;;;;;;6222275;23;20394;-88
2022/03/19 09:49:05;;;;;;;35.00;22.63;;;;;;;;;;6221928;23;20036;-88
2022/03/19 09:51:33;;;;;;;36.55;22.02;;;;;;;;;;6221713;23;20280;-88
2022/03/19 09:53:59;;;;;;;32.30;22.65;;;;;;;;;;6195735;23;20275;-87
2022/03/19 09:56:25;;;;;;;35.83;21.95;;;;;;;;;;6196032;23;20414;-87
2022/03/19 09:58:52;;;;;;;31.85;21.42;;;;;;;;;;6222108;23;20000;-88
2022/03/19 10:01:18;;;;;;;30.30;20.75;;;;;;;;;;6195108;23;20015;-87
2022/03/19 10:03:45;;;;;;;31.17;21.30;;;;;;;;;;6221499;23;20001;-87
2022/03/19 10:08:57;;;;;;;70.38;24.30;;;;;;;;;;6221826;23;20100;-86
2022/03/19 10:11:27;;;;;;;29.27;20.80;;;;;;;;;;6221672;23;20012;-88
2022/03/19 10:13:54;;;;;;;28.10;18.55;;;;;;;;;;6221933;23;20023;-87
2022/03/19 10:16:24;;;;;;;32.30;20.40;;;;;;;;;;6221771;23;20004;-88
2022/03/19 10:19:01;;;;;;;32.05;20.67;;;;;;;;;;6221929;23;20291;-87
2022/03/19 10:21:28;;;;;;;31.45;19.55;;;;;;;;;;6195387;23;20313;-87
2022/03/19 10:23:59;;;;;;;27.98;18.83;;;;;;;;;;6195441;23;20005;-87
2022/03/19 10:26:29;;;;;;;29.30;18.83;;;;;;;;;;6195301;23;20036;-87
2022/03/19 10:29:06;;;;;;;39.67;23.02;;;;;;;;;;6195238;23;20008;-87
2022/03/19 10:31:33;;;;;;;35.17;20.98;;;;;;;;;;6195295;23;20001;-87
2022/03/19 10:33:59;;;;;;;35.30;20.20;;;;;;;;;;6221787;23;20005;-87
2022/03/19 10:36:31;;;;;;;28.58;19.63;;;;;;;;;;6221459;23;20009;-87
2022/03/19 10:38:58;;;;;;;34.63;22.25;;;;;;;;;;6168285;23;20008;-91
2022/03/19 10:41:24;;;;;;;28.80;20.33;;;;;;;;;;6221518;23;20318;-87
2022/03/19 10:46:55;;;;;;;28.95;19.52;;;;;;;;;;6221283;23;20043;-88
2022/03/19 10:49:23;;;;;;;32.67;19.80;;;;;;;;;;6221401;23;20001;-87
2022/03/19 10:51:59;;;;;;;28.95;19.40;;;;;;;;;;6194458;23;20072;-88
2022/03/19 10:54:26;;;;;;;26.17;17.55;;;;;;;;;;6221313;23;19996;-88
2022/03/19 10:56:53;;;;;;;27.60;18.20;;;;;;;;;;6220290;23;20012;-88
2022/03/19 10:59:19;;;;;;;27.73;19.70;;;;;;;;;;6220303;23;20023;-87
2022/03/19 11:01:50;;;;;;;32.30;19.40;;;;;;;;;;6193648;23;20054;-88
2022/03/19 11:04:16;;;;;;;33.10;20.67;;;;;;;;;;6221424;23;20042;-87
2022/03/19 11:06:44;;;;;;;28.50;18.70;;;;;;;;;;6221507;23;20067;-87
2022/03/19 11:09:12;;;;;;;25.60;17.13;;;;;;;;;;6220947;23;20000;-88
2022/03/19 11:11:58;;;;;;;27.58;17.90;;;;;;;;;;6194785;23;20356;-88
2022/03/19 11:14:26;;;;;;;27.35;17.67;;;;;;;;;;6194391;23;20088;-89
2022/03/19 11:17:25;;;;;;;26.10;16.13;;;;;;;;;;6194565;23;20012;-88
2022/03/19 11:19:55;;;;;;;22.83;16.33;;;;;;;;;;6100420;23;20062;-88
2022/03/19 11:22:21;;;;;;;27.42;17.13;;;;;;;;;;6076071;23;20119;-88
2022/03/19 11:24:53;;;;;;;34.08;19.77;;;;;;;;;;6100064;23;20002;-88
2022/03/19 11:27:20;;;;;;;33.03;19.50;;;;;;;;;;6100193;23;20282;-87
2022/03/19 11:29:46;;;;;;;32.90;20.85;;;;;;;;;;6076447;23;20040;-88
2022/03/19 11:32:22;;;;;;;27.60;18.17;;;;;;;;;;6076149;23;20006;-88
2022/03/19 11:34:49;;;;;;;26.73;17.98;;;;;;;;;;6076334;23;20441;-89
2022/03/19 11:37:15;;;;;;;24.80;16.90;;;;;;;;;;6075178;23;20105;-88
2022/03/19 11:40:00;;;;;;;28.83;18.00;;;;;;;;;;6099343;23;20398;-87
2022/03/19 11:42:30;;;;;;;26.65;17.55;;;;;;;;;;6099089;23;20046;-89
2022/03/19 11:44:56;;;;;;;27.98;17.88;;;;;;;;;;6074285;23;20042;-88
2022/03/19 11:47:32;;;;;;;28.13;18.75;;;;;;;;;;6098859;23;20042;-87
2022/03/19 11:50:02;;;;;;;29.55;19.80;;;;;;;;;;6099053;23;20024;-88
2022/03/19 11:52:31;;;;;;;26.75;17.77;;;;;;;;;;6100511;23;20029;-88
2022/03/19 11:55:03;;;;;;;26.70;17.70;;;;;;;;;;6077524;23;20014;-89
2022/03/19 11:57:47;;;;;;;24.10;16.67;;;;;;;;;;6155709;23;20005;-88
2022/03/19 12:00:14;;;;;;;27.63;16.58;;;;;;;;;;6166578;23;20011;-88
2022/03/19 12:02:59;;;;;;;23.27;16.52;;;;;;;;;;6192988;23;20352;-88
2022/03/19 12:05:27;;;;;;;81.57;20.13;;;;;;;;;;6192659;23;20026;-88
2022/03/19 12:07:55;;;;;;;29.08;17.30;;;;;;;;;;6166948;23;20005;-90
2022/03/19 12:10:23;;;;;;;27.55;16.55;;;;;;;;;;6192770;23;20001;-91
2022/03/19 12:12:50;;;;;;;39.47;17.30;;;;;;;;;;6192891;23;20264;-89
2022/03/19 12:15:34;;;;;;;34.50;19.35;;;;;;;;;;6192675;23;20005;-90
2022/03/19 12:18:19;;;;;;;28.05;17.85;;;;;;;;;;6192725;23;20416;-88
2022/03/19 12:20:45;;;;;;;26.42;17.40;;;;;;;;;;6193081;23;20020;-88
2022/03/19 12:23:13;;;;;;;26.38;17.42;;;;;;;;;;6192943;23;20009;-88
2022/03/19 12:25:44;;;;;;;30.10;19.00;;;;;;;;;;6166394;23;20034;-89
2022/03/19 12:28:15;;;;;;;39.50;19.98;;;;;;;;;;6192375;23;20299;-89
2022/03/19 12:30:42;;;;;;;33.80;18.13;;;;;;;;;;6192437;23;20435;-88
2022/03/19 12:33:08;;;;;;;42.40;18.33;;;;;;;;;;6191960;23;20394;-88
2022/03/19 12:35:46;;;;;;;90.40;21.60;;;;;;;;;;6192129;23;20047;-89
2022/03/19 12:38:24;;;;;;;29.50;17.92;;;;;;;;;;6192401;23;20009;-89
2022/03/19 12:43:37;;;;;;;23.77;15.45;;;;;;;;;;6192814;23;20016;-89
2022/03/19 12:46:04;;;;;;;20.38;14.73;;;;;;;;;;6166566;23;20012;-88
2022/03/19 12:48:32;;;;;;;25.02;14.80;;;;;;;;;;6192492;23;20001;-91
2022/03/19 12:50:58;;;;;;;18.38;12.88;;;;;;;;;;6210114;23;20028;-89
2022/03/19 12:53:31;;;;;;;21.27;12.57;;;;;;;;;;6222370;23;20039;-88
2022/03/19 12:56:10;;;;;;;15.68;10.88;;;;;;;;;;6196114;23;20059;-88
2022/03/19 12:58:37;;;;;;;27.73;12.77;;;;;;;;;;6222445;23;20000;-89
2022/03/19 13:01:06;;;;;;;20.00;12.20;;;;;;;;;;6221829;23;20004;-89
2022/03/19 13:03:32;;;;;;;24.73;12.02;;;;;;;;;;6221777;23;20031;-90
2022/03/19 13:05:58;;;;;;;26.55;12.77;;;;;;;;;;6194975;23;20004;-89
2022/03/19 13:08:24;;;;;;;23.95;12.20;;;;;;;;;;6222029;23;20055;-87
2022/03/19 13:10:52;;;;;;;18.92;11.10;;;;;;;;;;6222449;23;20000;-88
2022/03/19 13:13:18;;;;;;;19.98;10.25;;;;;;;;;;6222098;23;20000;-88
2022/03/19 13:15:52;;;;;;;17.63;11.43;;;;;;;;;;6222383;23;20011;-87
2022/03/19 13:18:29;;;;;;;20.02;11.82;;;;;;;;;;6195491;23;20086;-87
2022/03/19 13:21:00;;;;;;;20.58;12.40;;;;;;;;;;6222662;23;20383;-87
2022/03/19 13:23:26;;;;;;;20.60;12.27;;;;;;;;;;6221759;23;20015;-87
2022/03/19 13:25:52;;;;;;;19.27;13.23;;;;;;;;;;6194772;23;20011;-88
2022/03/19 13:28:19;;;;;;;19.65;13.20;;;;;;;;;;6221075;23;20398;-87
2022/03/19 13:30:47;;;;;;;18.13;11.85;;;;;;;;;;6194765;23;20271;-87
2022/03/19 13:33:15;;;;;;;15.25;10.63;;;;;;;;;;6194147;23;20368;-88
2022/03/19 13:35:47;;;;;;;18.60;12.10;;;;;;;;;;6220881;23;20071;-88
2022/03/19 13:38:14;;;;;;;21.60;13.05;;;;;;;;;;6222399;23;20001;-88
2022/03/19 13:40:40;;;;;;;18.52;10.95;;;;;;;;;;6221727;23;20011;-88
2022/03/19 13:43:06;;;;;;;17.00;10.45;;;;;;;;;;6221691;23;20028;-88
2022/03/19 13:45:32;;;;;;;23.05;11.68;;;;;;;;;;6221844;23;20007;-88
2022/03/19 13:48:08;;;;;;;17.08;11.88;;;;;;;;;;6195740;23;20006;-88
2022/03/19 13:50:38;;;;;;;16.10;9.75;;;;;;;;;;6195573;23;20027;-88
2022/03/19 13:53:04;;;;;;;16.58;11.25;;;;;;;;;;6222355;23;20008;-87
2022/03/19 13:55:30;;;;;;;18.42;10.63;;;;;;;;;;6195100;23;20087;-87
2022/03/19 13:58:04;;;;;;;16.13;9.73;;;;;;;;;;6221592;23;20364;-87
2022/03/19 14:00:33;;;;;;;21.15;11.50;;;;;;;;;;6195206;23;20447;-87
2022/03/19 14:03:04;;;;;;;19.67;11.65;;;;;;;;;;6221498;23;20056;-87
2022/03/19 14:05:40;;;;;;;26.52;12.18;;;;;;;;;;6195105;23;20078;-88
2022/03/19 14:08:07;;;;;;;29.98;11.07;;;;;;;;;;6221483;23;20001;-88
2022/03/19 14:10:39;;;;;;;24.95;11.07;;;;;;;;;;6221817;23;19997;-87
2022/03/19 14:13:06;;;;;;;15.07;9.80;;;;;;;;;;6195023;23;20190;-87
2022/03/19 14:15:59;;;;;;;19.40;11.35;;;;;;;;;;6221708;23;19996;-87
2022/03/19 14:18:24;;;;;;;;;;;;;;;;;;6192005;23;20004;-87
2022/03/19 14:20:51;;;;;;;19.17;10.85;;;;;;;;;;6221461;23;19911;-88
2022/03/19 14:23:18;;;;;;;15.52;9.43;;;;;;;;;;6221684;23;20012;-87
2022/03/19 14:25:44;;;;;;;16.05;10.13;;;;;;;;;;6221509;23;20017;-87
2022/03/19 14:28:12;;;;;;;18.70;9.93;;;;;;;;;;6221388;23;20001;-88
2022/03/19 14:30:39;;;;;;;20.95;11.45;;;;;;;;;;6195576;23;20005;-88
2022/03/19 14:33:05;;;;;;;18.60;10.40;;;;;;;;;;6221503;23;20008;-91
2022/03/19 14:35:50;;;;;;;34.40;19.50;;;;;;;;;;6221466;23;20009;-87
2022/03/19 14:38:22;;;;;;;27.17;9.95;;;;;;;;;;6221647;23;20247;-87
2022/03/19 14:40:48;;;;;;;15.38;10.15;;;;;;;;;;6221617;23;20011;-88
2022/03/19 14:43:15;;;;;;;39.47;19.55;;;;;;;;;;6221188;23;20012;-91
2022/03/19 14:45:42;;;;;;;30.00;14.45;;;;;;;;;;6194901;23;20001;-90
2022/03/19 14:48:08;;;;;;;24.20;14.60;;;;;;;;;;6221732;23;20000;-92
2022/03/19 14:50:35;;;;;;;37.53;21.90;;;;;;;;;;6197981;23;20016;-91
2022/03/19 14:53:01;;;;;;;26.65;14.05;;;;;;;;;;6223169;23;20008;-90
2022/03/19 14:55:27;;;;;;;61.90;16.50;;;;;;;;;;6220684;23;20047;-91
2022/03/19 14:57:53;;;;;;;33.72;17.73;;;;;;;;;;6221445;23;20267;-92
2022/03/19 15:00:21;;;;;;;37.63;18.35;;;;;;;;;;6221277;23;20001;-92
2022/03/19 15:02:48;;;;;;;42.67;20.55;;;;;;;;;;6194874;23;20008;-91
2022/03/19 15:05:14;;;;;;;32.55;16.35;;;;;;;;;;6221432;23;20291;-91
2022/03/19 15:07:40;;;;;;;31.92;12.60;;;;;;;;;;6194414;23;20005;-92
2022/03/19 15:10:06;;;;;;;26.13;13.13;;;;;;;;;;6220522;23;20004;-92
2022/03/19 15:12:34;;;;;;;29.75;15.73;;;;;;;;;;6220267;23;20000;-91
2022/03/19 15:15:01;;;;;;;52.17;22.65;;;;;;;;;;6220624;23;20063;-91
2022/03/19 15:17:27;;;;;;;46.63;18.95;;;;;;;;;;6194110;23;20091;-91
2022/03/19 15:19:53;;;;;;;28.80;14.20;;;;;;;;;;6221164;23;20006;-91
2022/03/19 15:22:20;;;;;;;24.33;12.77;;;;;;;;;;6220874;23;20372;-92
2022/03/19 15:24:46;;;;;;;31.70;15.27;;;;;;;;;;6221222;23;20058;-92